Terminal Aerodrome Forecast
Issued by NWS Melbourne, FL

Home | Current Version | Previous Version | Text Only | Print | Product List | Glossary On
Versions: 1 2 3 4 5 6 7 8 9 10 11 12 13 14 15 16 17 18 19 20 21 22 23
359
FTUS42 KMLB 201720
TAFDAB
TAF
KDAB 201720Z 2018/2118 05009KT P6SM FEW040 SCT250
     FM210200 VRB02KT P6SM FEW040 SCT120
     FM211000 00000KT 3SM BR SCT120
     FM211500 11008KT P6SM SCT040 BKN250=

USA.gov is the U.S. government's official web portal to all federal, state and local government web resources and services.